createdAt,value
2022-10-11T00:01:05.471Z,100876.09
2022-10-11T00:03:33.142Z,100867.03
2022-10-11T00:06:12.389Z,100881.56
2022-10-11T00:08:40.082Z,100833.00
2022-10-11T00:11:19.153Z,100832.22
2022-10-11T00:13:47.017Z,100819.25
2022-10-11T00:16:18.711Z,100869.13
2022-10-11T00:18:57.359Z,100825.09
2022-10-11T00:21:25.545Z,100808.31
2022-10-11T00:23:53.243Z,100867.97
2022-10-11T00:26:32.241Z,100852.09
2022-10-11T00:29:00.004Z,100844.19
2022-10-11T00:31:30.909Z,100835.31
2022-10-11T00:34:02.672Z,100818.44
2022-10-11T00:36:40.934Z,100863.94
2022-10-11T00:39:19.979Z,100860.31
2022-10-11T00:41:59.058Z,100814.59
2022-10-11T00:44:37.685Z,100863.25
2022-10-11T00:47:20.023Z,100840.47
2022-10-11T00:49:59.215Z,100824.91
2022-10-11T00:52:42.145Z,100853.53
2022-10-11T00:55:14.263Z,100832.81
2022-10-11T00:57:46.398Z,100864.41
2022-10-11T01:00:27.528Z,100825.84
2022-10-11T01:02:55.512Z,100861.13
2022-10-11T01:05:29.634Z,100861.13
2022-10-11T01:08:00.986Z,100802.38
2022-10-11T01:10:41.512Z,100819.69
2022-10-11T01:13:39.378Z,100859.22
2022-10-11T01:16:33.484Z,100864.84
2022-10-11T01:19:34.741Z,100836.50
2022-10-11T01:22:31.634Z,100854.19
2022-10-11T01:25:25.859Z,100855.31
2022-10-11T01:28:35.360Z,100848.19
2022-10-11T01:31:17.726Z,100844.63
2022-10-11T01:34:06.594Z,100833.00
2022-10-11T01:36:57.078Z,100786.69
2022-10-11T01:39:41.559Z,100841.59
2022-10-11T01:42:22.147Z,100834.19
2022-10-11T01:44:51.790Z,100834.19
2022-10-11T01:47:25.112Z,100822.06
2022-10-11T01:49:57.821Z,100717.22
2022-10-11T01:52:34.197Z,100806.84
2022-10-11T01:55:10.847Z,100814.69
2022-10-11T01:58:04.931Z,100803.06
2022-10-11T02:00:59.680Z,100809.34
2022-10-11T02:04:10.643Z,100782.50
2022-10-11T02:07:04.503Z,100809.19
2022-10-11T02:10:03.661Z,100750.59
2022-10-11T02:12:49.322Z,100805.97
2022-10-11T02:15:31.896Z,100773.75
2022-10-11T02:18:16.967Z,100797.41
2022-10-11T02:21:00.869Z,100796.41
2022-10-11T02:23:42.574Z,100797.88
2022-10-11T02:26:12.805Z,100780.88
2022-10-11T02:28:56.886Z,100726.97
2022-10-11T02:31:38.401Z,100804.63
2022-10-11T02:34:37.847Z,100772.31
2022-10-11T02:37:59.994Z,100788.16
2022-10-11T02:40:45.154Z,100752.19
2022-10-11T02:43:45.720Z,100775.84
2022-10-11T02:46:26.533Z,100804.97
2022-10-11T02:49:07.627Z,100761.38
2022-10-11T02:51:46.959Z,100789.41
2022-10-11T02:54:27.910Z,100805.59
2022-10-11T02:56:55.766Z,100787.38
2022-10-11T02:59:35.245Z,100815.41
2022-10-11T03:02:14.188Z,100778.16
2022-10-11T03:04:53.394Z,100697.56
2022-10-11T03:07:33.560Z,100814.38
2022-10-11T03:10:13.287Z,100810.53
2022-10-11T03:12:52.765Z,100788.16
2022-10-11T03:15:31.813Z,100793.03
2022-10-11T03:18:10.774Z,100807.63
2022-10-11T03:20:51.051Z,100760.03
2022-10-11T03:23:30.301Z,100762.78
2022-10-11T03:26:10.462Z,100780.88
2022-10-11T03:28:50.140Z,100762.25
2022-10-11T03:31:31.704Z,100776.00
2022-10-11T03:34:11.200Z,100788.28
2022-10-11T03:36:39.050Z,100787.19
2022-10-11T03:39:06.974Z,100830.84
2022-10-11T03:41:45.416Z,100827.78
2022-10-11T03:44:25.721Z,100811.97
2022-10-11T03:46:53.529Z,100797.19
2022-10-11T03:49:34.209Z,100789.41
2022-10-11T03:52:01.966Z,100828.00
2022-10-11T03:54:40.862Z,100792.91
2022-10-11T03:57:21.045Z,100807.47
2022-10-11T04:00:02.453Z,100812.81
2022-10-11T04:02:45.649Z,100812.69
2022-10-11T04:05:25.451Z,100818.25
2022-10-11T04:08:11.173Z,100808.91
2022-10-11T04:10:50.886Z,100785.41
2022-10-11T04:13:29.709Z,100804.22
2022-10-11T04:16:09.135Z,100802.63
2022-10-11T04:19:00.728Z,100765.56
2022-10-11T04:21:40.525Z,100750.81
2022-10-11T04:24:20.295Z,100792.06
2022-10-11T04:27:00.748Z,100806.97
2022-10-11T04:29:39.783Z,100772.47
2022-10-11T04:32:22.432Z,100802.31
2022-10-11T04:35:00.835Z,100810.84
2022-10-11T04:37:39.835Z,100803.25
2022-10-11T04:40:18.982Z,100783.63
2022-10-11T04:42:58.892Z,100764.72
2022-10-11T04:45:38.556Z,100731.84
2022-10-11T04:48:18.424Z,100798.88
2022-10-11T04:50:58.592Z,100796.13
2022-10-11T04:53:37.985Z,100722.84
2022-10-11T04:56:18.833Z,100756.66
2022-10-11T04:59:00.304Z,100807.28
2022-10-11T05:01:39.403Z,100786.22
2022-10-11T05:04:18.617Z,100755.84
2022-10-11T05:06:58.888Z,100761.13
2022-10-11T05:09:38.449Z,100765.38
2022-10-11T05:12:17.234Z,100778.31
2022-10-11T05:14:57.853Z,100785.41
2022-10-11T05:17:36.503Z,100813.09
2022-10-11T05:20:18.149Z,100770.00
2022-10-11T05:22:58.068Z,100821.91
2022-10-11T05:25:39.206Z,100771.13
2022-10-11T05:28:18.620Z,100822.72
2022-10-11T05:30:57.596Z,100783.00
2022-10-11T05:33:37.142Z,100826.78
2022-10-11T05:36:17.222Z,100819.41
2022-10-11T05:38:56.250Z,100783.22
2022-10-11T05:41:46.206Z,100791.88
2022-10-11T05:44:26.466Z,100822.25
2022-10-11T05:47:07.774Z,100769.19
2022-10-11T05:49:47.250Z,100820.28
2022-10-11T05:52:28.591Z,100800.91
2022-10-11T05:55:07.379Z,100826.88
2022-10-11T05:57:46.784Z,100829.50
2022-10-11T06:00:26.476Z,100821.34
2022-10-11T06:03:08.567Z,100840.34
2022-10-11T06:05:48.227Z,100796.13
2022-10-11T06:08:30.694Z,100814.03
2022-10-11T06:11:14.138Z,100838.16
2022-10-11T06:14:05.126Z,100807.91
2022-10-11T06:17:03.335Z,100816.94
2022-10-11T06:19:55.311Z,100860.38
2022-10-11T06:23:05.872Z,100805.50
2022-10-11T06:26:10.665Z,100861.34
2022-10-11T06:29:04.261Z,100820.84
2022-10-11T06:31:59.958Z,100858.00
2022-10-11T06:34:51.889Z,100859.41
2022-10-11T06:38:04.583Z,100870.28
2022-10-11T06:41:13.357Z,100856.34
2022-10-11T06:44:14.501Z,100866.88
2022-10-11T06:47:07.263Z,100839.28
2022-10-11T06:50:03.311Z,100855.50
2022-10-11T06:52:59.845Z,100876.25
2022-10-11T06:56:01.155Z,100825.16
2022-10-11T06:58:57.784Z,100881.66
2022-10-11T07:01:52.354Z,100869.03
2022-10-11T07:04:43.050Z,100898.00
2022-10-11T07:07:37.914Z,100891.25
2022-10-11T07:10:30.378Z,100886.06
2022-10-11T07:13:25.771Z,100903.91
2022-10-11T07:16:25.149Z,100909.88
2022-10-11T07:19:21.242Z,100874.44
2022-10-11T07:22:28.851Z,100878.28
2022-10-11T07:25:20.592Z,100899.19
2022-10-11T07:28:13.941Z,100928.94
2022-10-11T07:31:16.099Z,100890.25
2022-10-11T07:34:08.189Z,100921.22
2022-10-11T07:37:02.763Z,100924.44
2022-10-11T07:39:56.998Z,100919.41
2022-10-11T07:42:49.003Z,100916.53
2022-10-11T07:46:34.755Z,100921.59
2022-10-11T07:49:27.499Z,100862.78
2022-10-11T07:52:23.201Z,100925.78
2022-10-11T07:55:16.098Z,100888.44
2022-10-11T07:58:14.632Z,100940.69
2022-10-11T08:01:08.288Z,100929.19
2022-10-11T08:04:00.260Z,100944.38
2022-10-11T08:06:53.610Z,100882.03
2022-10-11T08:09:57.480Z,100932.94
2022-10-11T08:12:51.436Z,100933.97
2022-10-11T08:15:49.774Z,100947.44
2022-10-11T08:18:42.433Z,100948.25
2022-10-11T08:21:35.106Z,100917.34
2022-10-11T08:24:27.625Z,100941.00
2022-10-11T08:27:20.357Z,100932.94
2022-10-11T08:30:17.642Z,100960.47
2022-10-11T08:33:26.458Z,100913.22
2022-10-11T08:36:23.065Z,100872.75
2022-10-11T08:39:14.802Z,100939.38
2022-10-11T08:42:15.306Z,100966.94
2022-10-11T08:45:29.690Z,100963.38
2022-10-11T08:48:07.154Z,100960.41
2022-10-11T08:50:35.113Z,100880.22
2022-10-11T08:53:15.481Z,100947.94
2022-10-11T08:55:48.201Z,100952.13
2022-10-11T08:58:22.619Z,100965.69
2022-10-11T09:00:54.027Z,100930.56
2022-10-11T09:03:40.993Z,100965.69
2022-10-11T09:06:37.761Z,100973.44
2022-10-11T09:09:24.083Z,100974.56
2022-10-11T09:11:55.999Z,100972.94
2022-10-11T09:14:35.732Z,100974.06
2022-10-11T09:17:33.893Z,100970.00
2022-10-11T09:20:24.901Z,100972.13
2022-10-11T09:23:23.632Z,100974.56
2022-10-11T09:26:03.617Z,100937.78
2022-10-11T09:28:50.079Z,100981.66
2022-10-11T09:31:18.376Z,100971.56
2022-10-11T09:33:51.556Z,101002.47
2022-10-11T09:36:28.728Z,100984.72
2022-10-11T09:39:11.858Z,100993.13
2022-10-11T09:41:59.534Z,100961.84
2022-10-11T09:44:39.036Z,100890.72
2022-10-11T09:47:12.337Z,100985.53
2022-10-11T09:49:49.023Z,100981.66
2022-10-11T09:52:21.245Z,100978.44
2022-10-11T09:54:54.207Z,100981.19
2022-10-11T09:57:24.056Z,100962.34
2022-10-11T10:00:19.754Z,100985.53
2022-10-11T10:02:49.436Z,100983.91
2022-10-11T10:05:23.246Z,100960.09
2022-10-11T10:08:02.817Z,100922.22
2022-10-11T10:10:55.802Z,100980.84
2022-10-11T10:13:39.702Z,100978.91
2022-10-11T10:16:18.463Z,100954.31
2022-10-11T10:18:55.001Z,100970.38
2022-10-11T10:21:32.050Z,100918.09
2022-10-11T10:24:06.377Z,100968.63
2022-10-11T10:26:34.361Z,100909.50
2022-10-11T10:29:05.412Z,100901.59
2022-10-11T10:31:54.928Z,100978.47
2022-10-11T10:34:31.771Z,100972.47
2022-10-11T10:37:25.475Z,100931.00
2022-10-11T10:40:18.823Z,100974.41
2022-10-11T10:42:46.507Z,100855.84
2022-10-11T10:45:21.885Z,100948.81
2022-10-11T10:48:11.086Z,100978.81
2022-10-11T10:50:54.895Z,100966.34
2022-10-11T10:53:39.101Z,100969.44
2022-10-11T10:56:20.008Z,100923.59
2022-10-11T10:59:10.971Z,100970.09
2022-10-11T11:02:35.546Z,100968.00
2022-10-11T11:05:23.616Z,100967.19
2022-10-11T11:08:24.359Z,100965.69
2022-10-11T11:11:01.357Z,100971.53
2022-10-11T11:13:44.082Z,100936.09
2022-10-11T11:16:29.550Z,100954.59
2022-10-11T11:19:00.303Z,100968.72
2022-10-11T11:21:43.461Z,100958.22
2022-10-11T11:24:18.731Z,100956.13
2022-10-11T11:26:49.291Z,100954.44
2022-10-11T11:29:17.882Z,100962.69
2022-10-11T11:31:53.459Z,100954.44
2022-10-11T11:34:55.515Z,100941.00
2022-10-11T11:37:35.510Z,100906.69
2022-10-11T11:40:18.870Z,100952.25
2022-10-11T11:42:49.893Z,100965.31
2022-10-11T11:45:43.276Z,100963.06
2022-10-11T11:48:18.914Z,100961.06
2022-10-11T11:51:14.844Z,100953.72
2022-10-11T11:53:56.543Z,100867.91
2022-10-11T11:56:29.737Z,100957.28
2022-10-11T11:59:15.042Z,100923.94
2022-10-11T12:02:01.623Z,100944.38
2022-10-11T12:04:35.050Z,100955.34
2022-10-11T12:07:17.658Z,100954.53
2022-10-11T12:09:50.789Z,100933.41
2022-10-11T12:12:32.583Z,100941.63
2022-10-11T12:15:09.379Z,100939.69
2022-10-11T12:17:58.048Z,100938.56
2022-10-11T12:20:25.612Z,100942.13
2022-10-11T12:22:53.925Z,100932.75
2022-10-11T12:25:23.179Z,100941.97
2022-10-11T12:27:53.137Z,100933.13
2022-10-11T12:30:48.418Z,100929.72
2022-10-11T12:33:22.158Z,100931.66
2022-10-11T12:35:53.131Z,100932.16
2022-10-11T12:38:25.503Z,100928.59
2022-10-11T12:41:20.318Z,100926.38
2022-10-11T12:43:47.970Z,100935.69
2022-10-11T12:46:33.910Z,100924.72
2022-10-11T12:49:32.525Z,100920.88
2022-10-11T12:52:22.149Z,100910.97
2022-10-11T12:55:22.310Z,100916.81
2022-10-11T12:57:49.830Z,100925.56
2022-10-11T13:00:35.482Z,100917.00
2022-10-11T13:03:05.805Z,100846.56
2022-10-11T13:05:44.959Z,100906.19
2022-10-11T13:08:25.411Z,100895.38
2022-10-11T13:10:55.904Z,100905.25
2022-10-11T13:13:31.743Z,100897.50
2022-10-11T13:16:04.561Z,100851.69
2022-10-11T13:18:33.075Z,100806.38
2022-10-11T13:21:00.876Z,100865.28
2022-10-11T13:23:38.741Z,100905.41
2022-10-11T13:26:06.342Z,100883.88
2022-10-11T13:28:36.578Z,100899.91
2022-10-11T13:31:05.980Z,100817.56
2022-10-11T13:33:39.632Z,100892.47
2022-10-11T13:36:15.586Z,100897.97
2022-10-11T13:38:52.598Z,100899.59
2022-10-11T13:41:20.935Z,100870.97
2022-10-11T13:43:49.820Z,100868.41
2022-10-11T13:46:23.603Z,100851.41
2022-10-11T13:49:37.668Z,100887.78
2022-10-11T13:52:26.475Z,100840.25
2022-10-11T13:54:59.020Z,100876.66
2022-10-11T13:57:46.372Z,100864.19
2022-10-11T14:00:19.674Z,100879.41
2022-10-11T14:02:54.938Z,100888.78
2022-10-11T14:05:44.712Z,100885.22
2022-10-11T14:08:38.940Z,100879.88
2022-10-11T14:11:08.179Z,100868.84
2022-10-11T14:13:43.638Z,100870.66
2022-10-11T14:16:21.201Z,100880.00
2022-10-11T14:19:10.193Z,100869.66
2022-10-11T14:21:45.439Z,100870.16
2022-10-11T14:24:16.538Z,100827.97
2022-10-11T14:26:48.307Z,100838.47
2022-10-11T14:29:26.516Z,100870.47
2022-10-11T14:32:01.464Z,100853.66
2022-10-11T14:34:29.254Z,100875.16
2022-10-11T14:36:56.901Z,100875.16
2022-10-11T14:39:27.915Z,100867.06
2022-10-11T14:41:55.958Z,100844.09
2022-10-11T14:44:24.261Z,100862.09
2022-10-11T14:46:54.812Z,100864.03
2022-10-11T14:49:26.429Z,100864.63
2022-10-11T14:51:56.998Z,100863.03
2022-10-11T14:54:26.760Z,100785.84
2022-10-11T14:56:57.137Z,100839.75
2022-10-11T14:59:27.437Z,100862.06
2022-10-11T15:01:55.203Z,100800.25
2022-10-11T15:04:25.524Z,100858.81
2022-10-11T15:06:55.752Z,100849.94
2022-10-11T15:09:28.904Z,100864.03
2022-10-11T15:11:56.910Z,100812.22
2022-10-11T15:14:25.405Z,100854.13
2022-10-11T15:16:53.535Z,100852.69
2022-10-11T15:19:24.101Z,100843.94
2022-10-11T15:21:52.698Z,100852.22
2022-10-11T15:24:20.436Z,100838.00
2022-10-11T15:26:49.287Z,100798.84
2022-10-11T15:29:19.210Z,100835.25
2022-10-11T15:31:49.514Z,100849.16
2022-10-11T15:34:17.522Z,100772.81
2022-10-11T15:36:45.411Z,100826.69
2022-10-11T15:39:25.630Z,100826.53
2022-10-11T15:41:53.717Z,100816.66
2022-10-11T15:44:21.940Z,100807.25
2022-10-11T15:46:49.991Z,100836.22
2022-10-11T15:49:17.780Z,100791.91
2022-10-11T15:51:46.219Z,100823.28
2022-10-11T15:54:13.927Z,100833.47
2022-10-11T15:56:41.851Z,100820.81
2022-10-11T15:59:11.776Z,100829.13
2022-10-11T16:01:39.773Z,100732.34
2022-10-11T16:04:07.524Z,100828.78
2022-10-11T16:06:35.421Z,100798.66
2022-10-11T16:09:04.050Z,100803.50
2022-10-11T16:11:31.857Z,100808.00
2022-10-11T16:13:59.657Z,100819.16
2022-10-11T16:16:28.686Z,100798.97
2022-10-11T16:18:56.199Z,100833.41
2022-10-11T16:21:24.450Z,100794.06
2022-10-11T16:23:52.085Z,100817.84
2022-10-11T16:26:20.190Z,100781.31
2022-10-11T16:28:48.320Z,100799.09
2022-10-11T16:31:20.708Z,100784.88
2022-10-11T16:33:48.840Z,100836.31
2022-10-11T16:36:32.139Z,100855.56
2022-10-11T16:39:02.067Z,100799.44
2022-10-11T16:41:29.724Z,100843.47
2022-10-11T16:43:57.483Z,100767.09
2022-10-11T16:46:25.208Z,100850.44
2022-10-11T16:48:56.068Z,100812.75
2022-10-11T16:51:24.502Z,100796.56
2022-10-11T16:53:53.352Z,100843.03
2022-10-11T16:56:22.779Z,100821.38
2022-10-11T16:58:52.076Z,100786.75
2022-10-11T17:01:20.422Z,100835.13
2022-10-11T17:03:49.913Z,100773.19
2022-10-11T17:06:18.092Z,100840.31
2022-10-11T17:08:46.308Z,100842.75
2022-10-11T17:11:14.636Z,100758.00
2022-10-11T17:13:42.252Z,100831.75
2022-10-11T17:16:10.249Z,100822.06
2022-10-11T17:18:37.937Z,100841.44
2022-10-11T17:21:11.523Z,100848.88
2022-10-11T17:23:39.457Z,100844.34
2022-10-11T17:26:11.518Z,100852.09
2022-10-11T17:28:39.676Z,100817.81
2022-10-11T17:31:08.428Z,100815.00
2022-10-11T17:33:36.560Z,100851.41
2022-10-11T17:36:14.883Z,100865.19
2022-10-11T17:38:42.575Z,100847.00
2022-10-11T17:41:10.919Z,100873.69
2022-10-11T17:43:39.369Z,100877.56
2022-10-11T17:46:08.875Z,100875.16
2022-10-11T17:48:39.322Z,100881.78
2022-10-11T17:51:14.917Z,100869.50
2022-10-11T17:53:43.383Z,100882.91
2022-10-11T17:56:14.526Z,100884.03
2022-10-11T17:58:43.493Z,100883.22
2022-10-11T18:01:18.486Z,100893.69
2022-10-11T18:03:53.038Z,100893.69
2022-10-11T18:06:21.084Z,100842.69
2022-10-11T18:08:49.110Z,100843.34
2022-10-11T18:11:19.553Z,100888.53
2022-10-11T18:13:52.655Z,100896.16
2022-10-11T18:16:22.978Z,100882.38
2022-10-11T18:18:50.739Z,100896.75
2022-10-11T18:21:19.006Z,100836.38
2022-10-11T18:23:46.998Z,100895.16
2022-10-11T18:26:20.757Z,100872.47
2022-10-11T18:28:49.552Z,100907.25
2022-10-11T18:31:20.592Z,100906.94
2022-10-11T18:33:48.738Z,100869.19
2022-10-11T18:36:18.471Z,100899.03
2022-10-11T18:38:47.706Z,100855.59
2022-10-11T18:41:18.224Z,100894.66
2022-10-11T18:43:57.440Z,100894.34
2022-10-11T18:46:25.552Z,100907.59
2022-10-11T18:48:55.146Z,100877.94
2022-10-11T18:51:24.291Z,100862.09
2022-10-11T18:53:52.765Z,100915.03
2022-10-11T18:56:23.128Z,100856.72
2022-10-11T18:58:52.558Z,100909.53
2022-10-11T19:01:23.162Z,100911.16
2022-10-11T19:03:54.113Z,100907.59
2022-10-11T19:06:25.279Z,100840.88
2022-10-11T19:09:00.656Z,100888.00
2022-10-11T19:11:28.775Z,100911.47
2022-10-11T19:14:08.996Z,100899.00
2022-10-11T19:16:40.002Z,100917.25
2022-10-11T19:19:09.676Z,100924.41
2022-10-11T19:21:38.190Z,100918.88
2022-10-11T19:24:06.333Z,100893.44
2022-10-11T19:26:38.734Z,100867.34
2022-10-11T19:29:10.838Z,100918.78
2022-10-11T19:32:07.679Z,100934.22
2022-10-11T19:34:35.309Z,100905.81
2022-10-11T19:37:04.224Z,100913.59
2022-10-11T19:39:32.437Z,100848.38
2022-10-11T19:42:00.986Z,100929.34
2022-10-11T19:44:35.662Z,100905.50
2022-10-11T19:47:06.492Z,100931.09
2022-10-11T19:49:34.027Z,100875.72
2022-10-11T19:52:01.622Z,100913.44
2022-10-11T19:54:29.446Z,100879.94
2022-10-11T19:56:57.108Z,100887.34
2022-10-11T19:59:24.735Z,100878.50
2022-10-11T20:01:53.474Z,100913.28
2022-10-11T20:07:10.124Z,100916.19
2022-10-11T20:09:39.403Z,100903.59
2022-10-11T20:12:07.308Z,100940.34
2022-10-11T20:14:34.993Z,100921.66
2022-10-11T20:17:02.665Z,100942.72
2022-10-11T20:19:31.578Z,100839.44
2022-10-11T20:22:01.644Z,100904.50
2022-10-11T20:24:33.285Z,100946.00
2022-10-11T20:27:03.695Z,100961.34
2022-10-11T20:29:33.280Z,100923.41
2022-10-11T20:32:01.118Z,100948.06
2022-10-11T20:34:28.968Z,100846.03
2022-10-11T20:36:56.704Z,100920.47
2022-10-11T20:39:25.315Z,100858.28
2022-10-11T20:41:53.124Z,100913.47
2022-10-11T20:44:20.804Z,100960.88
2022-10-11T20:46:48.512Z,100958.97
2022-10-11T20:49:16.230Z,100968.97
2022-10-11T20:51:43.976Z,100943.56
2022-10-11T20:54:12.078Z,100971.22
2022-10-11T20:56:40.011Z,100959.72
2022-10-11T20:59:08.277Z,100976.53
2022-10-11T21:01:39.701Z,100965.84
2022-10-11T21:04:15.981Z,100982.16
2022-10-11T21:06:48.507Z,100980.22
2022-10-11T21:09:17.389Z,100934.69
2022-10-11T21:11:45.265Z,100926.59
2022-10-11T21:14:13.121Z,100941.28
2022-10-11T21:16:40.782Z,100975.16
2022-10-11T21:19:14.326Z,100982.31
2022-10-11T21:21:43.239Z,100965.47
2022-10-11T21:24:11.138Z,100987.25
2022-10-11T21:26:39.154Z,100992.75
2022-10-11T21:29:07.714Z,100964.22
2022-10-11T21:31:35.988Z,100972.00
2022-10-11T21:34:05.384Z,100993.06
2022-10-11T21:36:33.417Z,100904.03
2022-10-11T21:39:01.080Z,100962.09
2022-10-11T21:41:31.784Z,100916.72
2022-10-11T21:43:59.592Z,100975.88
2022-10-11T21:46:54.450Z,100999.50
2022-10-11T21:49:18.645Z,100965.53
2022-10-11T21:51:46.285Z,100968.97
2022-10-11T21:54:13.990Z,100971.72
2022-10-11T21:56:42.030Z,100959.03
2022-10-11T21:59:12.912Z,100987.41
2022-10-11T22:01:42.040Z,100966.84
2022-10-11T22:04:11.334Z,100963.84
2022-10-11T22:06:39.091Z,100924.59
2022-10-11T22:09:08.583Z,100916.50
2022-10-11T22:11:36.821Z,100935.75
2022-10-11T22:14:05.028Z,100938.97
2022-10-11T22:16:33.740Z,100973.00
2022-10-11T22:19:01.619Z,100920.34
2022-10-11T22:21:29.410Z,100948.88
2022-10-11T22:23:57.213Z,100922.47
2022-10-11T22:26:28.013Z,100961.03
2022-10-11T22:28:55.914Z,100940.31
2022-10-11T22:31:23.735Z,100972.94
2022-10-11T22:33:59.550Z,100966.66
2022-10-11T22:36:30.657Z,100957.03
2022-10-11T22:38:58.883Z,100956.22
2022-10-11T22:41:26.821Z,100970.31
2022-10-11T22:43:54.550Z,100906.50
2022-10-11T22:46:22.307Z,100902.16
2022-10-11T22:48:50.017Z,100923.41
2022-10-11T22:51:17.707Z,100924.09
2022-10-11T22:53:45.397Z,100951.13
2022-10-11T22:56:13.266Z,100901.03
2022-10-11T22:58:40.954Z,100950.31
2022-10-11T23:01:11.355Z,100926.81
2022-10-11T23:03:40.005Z,100944.50
2022-10-11T23:06:07.996Z,100933.94
2022-10-11T23:08:35.590Z,100910.81
2022-10-11T23:11:07.778Z,100942.53
2022-10-11T23:13:36.174Z,100929.94
2022-10-11T23:16:13.894Z,100919.41
2022-10-11T23:18:42.825Z,100891.53
2022-10-11T23:21:10.859Z,100940.16
2022-10-11T23:23:40.116Z,100933.06
2022-10-11T23:26:13.465Z,100940.16
2022-10-11T23:28:42.185Z,100931.44
2022-10-11T23:31:16.802Z,100800.84
2022-10-11T23:33:46.108Z,100933.69
2022-10-11T23:36:19.454Z,100920.59
2022-10-11T23:38:58.708Z,100927.69
2022-10-11T23:41:28.955Z,100921.72
2022-10-11T23:43:58.273Z,100923.16
2022-10-11T23:46:26.080Z,100917.34
2022-10-11T23:48:53.666Z,100916.72
2022-10-11T23:51:21.385Z,100919.19
2022-10-11T23:53:48.960Z,100888.06
2022-10-11T23:56:16.964Z,100837.84
2022-10-11T23:58:44.932Z,100820.53
